createdAt,value
2023-02-02T05:07:53.559Z,78.23
2023-02-02T05:10:56.090Z,78.23
2023-02-02T05:13:58.397Z,82.12
2023-02-02T05:17:00.896Z,80.85
2023-02-02T05:20:03.131Z,81.21
2023-02-02T05:23:05.512Z,84.93
2023-02-02T05:26:07.730Z,81.79
2023-02-02T05:29:10.152Z,80.88
2023-02-02T05:32:12.233Z,79.76
2023-02-02T05:35:14.805Z,79.67
2023-02-02T05:38:17.120Z,79.12
2023-02-02T05:41:19.525Z,86.92
2023-02-02T05:44:21.637Z,80.07
2023-02-02T05:47:23.983Z,81.78
2023-02-02T05:50:26.343Z,80.51
2023-02-02T05:53:36.793Z,79.44
2023-02-02T05:56:39.233Z,80.47
2023-02-02T05:59:41.621Z,77.45
2023-02-02T06:02:43.720Z,95.58
2023-02-02T06:05:46.279Z,77.24
2023-02-02T06:08:48.422Z,75.79
2023-02-02T06:11:50.923Z,76.36
2023-02-02T06:14:53.108Z,83.05
2023-02-02T06:17:55.485Z,75.54
2023-02-02T06:20:58.994Z,78.43
2023-02-02T06:24:02.080Z,80.92
2023-02-02T06:27:05.538Z,76.32
2023-02-02T06:30:08.568Z,76.29
2023-02-02T06:33:10.686Z,78.61
2023-02-02T06:36:13.306Z,78.81
2023-02-02T06:39:15.426Z,78.52
2023-02-02T06:42:21.682Z,76.79
2023-02-02T06:45:25.362Z,76.59
2023-02-02T06:48:27.962Z,77.04
2023-02-02T06:51:30.049Z,79.66
2023-02-02T06:54:32.535Z,77.12
2023-02-02T06:57:34.654Z,76.84
2023-02-02T07:00:38.253Z,78.14
2023-02-02T07:03:41.467Z,75.99
2023-02-02T07:06:44.106Z,76.20
2023-02-02T07:09:47.557Z,76.96
2023-02-02T07:13:01.528Z,77.83
2023-02-02T07:16:07.058Z,74.27
2023-02-02T07:19:09.572Z,74.26
2023-02-02T07:22:11.729Z,79.47
2023-02-02T07:25:14.092Z,78.39
2023-02-02T07:28:18.468Z,77.03
2023-02-02T07:31:26.229Z,76.94
2023-02-02T07:34:28.536Z,91.57
2023-02-02T07:37:31.132Z,72.53
2023-02-02T07:40:33.216Z,100.00
2023-02-02T07:43:36.254Z,74.47
2023-02-02T07:46:38.459Z,70.32
2023-02-02T07:49:41.082Z,74.19
2023-02-02T07:52:43.159Z,83.28
2023-02-02T07:55:45.971Z,74.31
2023-02-02T07:58:48.671Z,78.18
2023-02-02T08:01:51.571Z,69.80
2023-02-02T08:04:54.019Z,69.71
2023-02-02T08:07:56.102Z,69.38
2023-02-02T08:10:58.441Z,68.23
2023-02-02T08:14:02.653Z,68.64
2023-02-02T08:17:05.502Z,70.83
2023-02-02T08:20:08.374Z,70.50
2023-02-02T08:23:15.570Z,68.03
2023-02-02T08:26:24.835Z,70.96
2023-02-02T08:29:27.246Z,66.97
2023-02-02T08:32:31.253Z,68.48
2023-02-02T08:35:33.721Z,66.09
2023-02-02T08:38:35.937Z,66.32
2023-02-02T08:41:38.736Z,65.79
2023-02-02T08:45:59.517Z,64.99
2023-02-02T08:48:12.149Z,67.99
2023-02-02T08:51:18.444Z,66.97
2023-02-02T08:54:20.848Z,64.80
2023-02-02T08:57:23.014Z,66.55
2023-02-02T09:00:25.997Z,64.46
2023-02-02T09:03:28.110Z,65.95
2023-02-02T09:06:37.258Z,69.87
2023-02-02T09:09:39.414Z,65.24
2023-02-02T09:12:41.797Z,63.44
2023-02-02T09:15:43.904Z,64.91
2023-02-02T09:18:46.408Z,62.20
2023-02-02T09:21:52.186Z,61.80
2023-02-02T09:24:54.594Z,64.53
2023-02-02T09:27:57.785Z,62.35
2023-02-02T09:31:02.144Z,63.39
2023-02-02T09:34:13.174Z,60.22
2023-02-02T09:37:15.730Z,82.51
2023-02-02T09:40:20.381Z,61.09
2023-02-02T09:43:35.893Z,64.39
2023-02-02T09:46:56.020Z,73.76
2023-02-02T09:50:21.969Z,59.70
2023-02-02T09:53:24.491Z,62.25
2023-02-02T09:56:36.509Z,63.85
2023-02-02T09:59:41.723Z,62.03
2023-02-02T10:02:49.021Z,59.93
2023-02-02T10:06:01.239Z,60.68
2023-02-02T10:09:08.759Z,58.87
2023-02-02T10:12:47.638Z,58.96
2023-02-02T10:16:05.240Z,57.72
2023-02-02T10:19:13.724Z,58.34
2023-02-02T10:22:25.766Z,63.18
2023-02-02T10:25:29.166Z,59.84
2023-02-02T10:29:03.567Z,58.16
2023-02-02T10:32:23.046Z,57.78
2023-02-02T10:35:38.138Z,59.61
2023-02-02T10:39:11.610Z,61.43
2023-02-02T10:42:30.100Z,59.78
2023-02-02T10:45:33.472Z,59.76
2023-02-02T10:48:36.156Z,59.12
2023-02-02T10:51:41.478Z,60.91
2023-02-02T10:54:58.447Z,58.50
2023-02-02T10:58:09.788Z,59.41
2023-02-02T11:01:12.151Z,59.02
2023-02-02T11:04:33.235Z,58.96
2023-02-02T11:07:36.610Z,59.77
2023-02-02T11:10:39.111Z,58.28
2023-02-02T11:14:11.289Z,60.75
2023-02-02T11:17:20.819Z,58.49
2023-02-02T11:20:31.779Z,58.66
2023-02-02T11:23:34.286Z,58.79
2023-02-02T11:26:50.096Z,60.27
2023-02-02T11:29:55.069Z,59.73
2023-02-02T11:32:57.412Z,59.49
2023-02-02T11:36:21.087Z,58.23
2023-02-02T11:39:23.236Z,59.52
2023-02-02T11:42:45.670Z,59.19
2023-02-02T11:45:56.868Z,58.90
2023-02-02T11:49:03.598Z,59.76
2023-02-02T11:52:18.312Z,59.32
2023-02-02T11:55:30.284Z,60.48
2023-02-02T11:58:44.671Z,58.46
2023-02-02T12:01:47.298Z,57.94
2023-02-02T12:05:11.804Z,59.14
2023-02-02T12:08:14.281Z,58.42
2023-02-02T12:11:24.059Z,58.00
2023-02-02T12:14:42.373Z,57.83
2023-02-02T12:17:46.161Z,63.48
2023-02-02T12:20:50.963Z,58.97
2023-02-02T12:24:18.055Z,63.87
2023-02-02T12:27:46.588Z,58.59
2023-02-02T12:31:14.045Z,58.46
2023-02-02T12:34:22.280Z,59.85
2023-02-02T12:37:31.419Z,59.56
2023-02-02T12:41:01.295Z,60.21
2023-02-02T12:44:13.453Z,60.94
2023-02-02T12:47:15.486Z,58.84
2023-02-02T12:50:30.591Z,58.89
2023-02-02T12:54:33.921Z,60.07
2023-02-02T12:57:46.603Z,58.94
2023-02-02T13:01:03.664Z,59.55
2023-02-02T13:08:06.272Z,59.55
2023-02-02T13:11:29.982Z,59.00
2023-02-02T13:14:37.396Z,59.77
2023-02-02T13:17:45.840Z,61.38
2023-02-02T13:21:15.392Z,59.88
2023-02-02T13:24:26.620Z,60.92
2023-02-02T13:27:30.267Z,61.34
2023-02-02T13:30:38.054Z,59.43
2023-02-02T13:33:41.988Z,62.66
2023-02-02T13:36:50.564Z,58.33
2023-02-02T13:40:00.917Z,58.47
2023-02-02T13:43:40.919Z,59.12
2023-02-02T13:46:52.450Z,59.08
2023-02-02T13:50:05.754Z,59.14
2023-02-02T13:53:46.703Z,59.20
2023-02-02T13:56:55.075Z,59.70
2023-02-02T14:00:17.275Z,61.73
2023-02-02T14:03:29.040Z,68.66
2023-02-02T14:07:06.336Z,60.00
2023-02-02T14:10:24.423Z,60.37
2023-02-02T14:13:54.167Z,58.41
2023-02-02T14:16:56.690Z,62.61
2023-02-02T14:20:01.181Z,60.92
2023-02-02T14:23:23.679Z,58.20
2023-02-02T14:26:49.181Z,63.87
2023-02-02T14:29:54.690Z,59.57
2023-02-02T14:33:22.451Z,62.04
2023-02-02T14:36:26.831Z,59.07
2023-02-02T14:39:33.984Z,59.81
2023-02-02T14:43:31.983Z,61.10
2023-02-02T14:46:38.055Z,61.01
2023-02-02T14:49:40.593Z,59.86
2023-02-02T14:52:42.776Z,60.34
2023-02-02T14:56:11.083Z,66.13
2023-02-02T14:59:20.017Z,59.50
2023-02-02T15:02:29.734Z,61.26
2023-02-02T15:05:35.923Z,59.81
2023-02-02T15:08:38.323Z,63.22
2023-02-02T15:12:06.663Z,61.91
2023-02-02T15:15:27.722Z,61.37
2023-02-02T15:18:39.124Z,59.55
2023-02-02T15:21:43.420Z,59.54
2023-02-02T15:24:46.312Z,59.77
2023-02-02T15:28:18.174Z,61.14
2023-02-02T15:31:44.131Z,60.52
2023-02-02T15:34:48.449Z,60.53
2023-02-02T15:38:00.504Z,63.28
2023-02-02T15:41:25.609Z,62.26
2023-02-02T15:44:29.791Z,62.32
2023-02-02T15:47:36.213Z,63.14
2023-02-02T15:50:39.563Z,62.63
2023-02-02T15:53:41.982Z,74.92
2023-02-02T15:56:44.064Z,62.36
2023-02-02T15:59:46.421Z,63.39
2023-02-02T16:02:53.403Z,65.26
2023-02-02T16:05:56.615Z,63.52
2023-02-02T16:08:58.882Z,63.55
2023-02-02T16:12:02.912Z,62.85
2023-02-02T16:15:19.158Z,62.22
2023-02-02T16:18:21.511Z,65.29
2023-02-02T16:21:26.381Z,63.45
2023-02-02T16:24:32.864Z,65.12
2023-02-02T16:27:35.304Z,63.62
2023-02-02T16:30:39.723Z,63.41
2023-02-02T16:33:44.157Z,64.42
2023-02-02T16:37:12.731Z,64.20
2023-02-02T16:40:30.824Z,63.32
2023-02-02T16:43:34.169Z,64.58
2023-02-02T16:46:43.243Z,64.68
2023-02-02T16:49:45.626Z,63.72
